Terminal Aerodrome Forecast
Issued by NWS Wilmington, OH

Current Version | Previous Version | Graphics & Text | Print | Product List | Glossary On
Versions: 1 2 3 4 5 6 7 8 9 10 11 12 13 14 15 16 17 18 19 20 21 22 23 24 25
035
FTUS41 KILN 232057 AAA
TAFCVG
TAF AMD
KCVG 232057Z 2321/2424 20005KT P6SM SCT100
     FM232300 VRB03KT P6SM SKC
     FM241600 19009KT P6SM FEW250
     FM242000 20011KT P6SM BKN250=

USA.gov is the U.S. government's official web portal to all federal, state and local government web resources and services.